Lapa, Brazil
Current Conditions -  °F | °C
As of 2:00 PM on Friday 28 Nov 2014 (Local Time) from SBCT Reporting Station
Broken Clouds Broken Clouds  
Wind Chill: 72°   Ceiling: 2000
Heat Index: 72°   Visibility: 6mi
Dew Point: 61°   Wind: 9mph
Humidity: 69%   Direction: 120°ESE
Pressure: 30.12"   Gusts: NA
Location:  25.77°S, 49.72°W
Report Text: SBCT 281600Z 12008KT 9999 SCT013 BKN020 22/16 Q1020
Loading
Personal Weather Stations






























Interactive Weather Map New forecast layout! Learn more

10-Day Weather Forecast

Advertisements
Track Severe Weather on mobile